Архив погоды в Белинском

Метеограмма Белинский
Вторник, 17 Июля
Время местн. Темп Ветер Видим Явления Облачность нижн/средн/верх Атм. давл. Влжн Точка росы ВНГО R Сост. почвы Tg s
Напр Скр Прв ур.ст ур.м изм
12:00 +22.4° В 3 - 20 км - преимущественно облачно 734 751 -0.9 75% +17.8° 1.5 км - - - -
09:00 +19.9° В 1 - 10 км небо без изменений {дождь} облачно 735 753 -0.9 96% +19.3° 1.5 км - - - -
06:00 +18.6° В,Ю-В 2 - 4 км слабый непрерывный дождь облачно 736 753 +0.4 94% +17.6° 300 м - Влажная (без луж) - -
03:00 +22° Ю-В 2 - 15 км небо без изменений {ливневые осадки} преимущественно облачно 735 753 -0.2 70% +16.3° 1.5 км - - - -
Понедельник, 16 Июля
Время местн. Темп Ветер Видим Явления Облачность нижн/средн/верх Атм. давл. Влжн Точка росы ВНГО R Сост. почвы Tg s
Напр Скр Прв ур.ст ур.м изм
21:00 +21.6° В 1 - 10 км небо без изменений {гроза, ливневые осадки} облачно с прояснениями 737 755 +0.8 78% +17.5° 1 км - - - -
18:00 +22.6° С,С-В 2 - 10 км ливневый дождь {гроза} облачно 736 754 -0.4 74% +17.8° 1 км - - - -
15:00 +25.6° Ю 1 - 10 км гроза без осадков облачно 737 754 -0.4 58% +16.8° 1 км - - - -
12:00 +29.4° В 2 - 20 км - преимущественно облачно 737 754 -0.5 42% +15.1° 1 км - - - -
09:00 +25.6° В,С-В 2 - 20 км - облачно с прояснениями 737 755 -0.4 58% +16.8° 1.5 км - - - -
06:00 +20.3° В,С-В 1 - 10 км - переменная облачность 738 756 -0.6 77% +16.2° - - Сухая (без трещин) - -
03:00 +20.6° В 1 - 17 км - облачно с прояснениями 738 756 +0.8 74% +15.7° - - - - -
00:00 +23.5° В,С-В 1 - 19 км - облачно с прояснениями 738 755 -0.2 56% +14.1° - - - - -
Воскресенье, 15 Июля
Время местн. Темп Ветер Видим Явления Облачность нижн/средн/верх Атм. давл. Влжн Точка росы ВНГО R Сост. почвы Tg s
Напр Скр Прв ур.ст ур.м изм
21:00 +25.2° В 1 - 20 км - переменная облачность 738 755 +0.5 50% +14° - - - - -
18:00 +29.6° В,Ю-В 2 - 20 км - облачно с прояснениями 737 754 -0.5 34% +12.1° 1.5 км - - - -
15:00 +31° В,Ю-В 3 - 20 км - облачно с прояснениями 738 755 -0.4 31% +11.8° 1 км - - - -
12:00 +29.6° В,Ю-В 2 - 20 км - облачно с прояснениями 738 755 -0.5 32% +11.2° 1 км - - - -
09:00 +27.5° В 2 - 20 км - переменная облачность 738 756 0 44% +14.3° более 2.5 км - - - -
06:00 +20.2° В 1 - 20 км - незначительная облачность 738 756 +0.2 69% +14.4° более 2.5 км 0 Сухая (без трещин) +16° -
03:00 +17.3° С-В 1 - 20 км - ясно 738 756 -0.2 76% +13.1° более 2.5 км - - - -
00:00 +19.6° С-В 1 - 18 км - незначительная облачность 738 756 +0.3 68% +13.5° более 2.5 км - - - -
Суббота, 14 Июля
Время местн. Темп Ветер Видим Явления Облачность нижн/средн/верх Атм. давл. Влжн Точка росы ВНГО R Сост. почвы Tg s
Напр Скр Прв ур.ст ур.м изм
21:00 +22.6° штиль 0 - 10 км - переменная облачность 738 756 +0.4 56% +13.3° - - - - -
18:00 +29° В 1 - 20 км - переменная облачность 738 755 -0.6 32% +10.8° 1.5 км - - - -
15:00 +29.6° З,Ю-З 1 - 20 км - облачно с прояснениями 738 756 -0.7 31% +10.8° 1 км - - - -
12:00 +28.7° В,С-В 2 - 20 км - облачно с прояснениями 739 756 -0.5 37% +12.7° 1 км - - - -
09:00 +25.6° С-В 1 - 20 км - переменная облачность 740 757 +0.1 51% +14.8° 1.5 км - - - -
06:00 +18.9° В 1 - 20 км - ясно 740 758 0 76% +14.6° более 2.5 км - Сухая (без трещин) - -